sensor_id;sensor_type;location;lat;lon;timestamp;temperature;humidity
26691;DHT22;14307;51.718;8.938;2024-02-26T00:02:10;4.10;99.90
26691;DHT22;14307;51.718;8.938;2024-02-26T00:04:37;4.00;99.90
26691;DHT22;14307;51.718;8.938;2024-02-26T00:07:03;4.10;99.90
26691;DHT22;14307;51.718;8.938;2024-02-26T00:09:30;4.10;99.90
26691;DHT22;14307;51.718;8.938;2024-02-26T00:11:57;4.10;99.90
26691;DHT22;14307;51.718;8.938;2024-02-26T00:14:26;4.10;99.90
26691;DHT22;14307;51.718;8.938;2024-02-26T00:16:53;4.20;99.90
26691;DHT22;14307;51.718;8.938;2024-02-26T00:19:20;4.10;99.90
26691;DHT22;14307;51.718;8.938;2024-02-26T00:21:47;4.20;99.90
26691;DHT22;14307;51.718;8.938;2024-02-26T00:24:14;4.20;99.90
26691;DHT22;14307;51.718;8.938;2024-02-26T00:26:41;4.20;99.90
26691;DHT22;14307;51.718;8.938;2024-02-26T00:29:08;4.20;99.90
26691;DHT22;14307;51.718;8.938;2024-02-26T00:31:36;4.20;99.90
26691;DHT22;14307;51.718;8.938;2024-02-26T00:34:03;4.30;99.90
26691;DHT22;14307;51.718;8.938;2024-02-26T00:36:30;4.30;99.90
26691;DHT22;14307;51.718;8.938;2024-02-26T00:38:57;4.40;99.90
26691;DHT22;14307;51.718;8.938;2024-02-26T00:41:24;4.40;99.90
26691;DHT22;14307;51.718;8.938;2024-02-26T00:43:51;4.40;99.90
26691;DHT22;14307;51.718;8.938;2024-02-26T00:46:18;4.40;99.90
26691;DHT22;14307;51.718;8.938;2024-02-26T00:48:44;4.40;99.90
26691;DHT22;14307;51.718;8.938;2024-02-26T00:51:11;4.50;99.90
26691;DHT22;14307;51.718;8.938;2024-02-26T00:53:38;4.50;99.90
26691;DHT22;14307;51.718;8.938;2024-02-26T00:56:05;4.50;99.90
26691;DHT22;14307;51.718;8.938;2024-02-26T00:58:33;4.60;99.90
26691;DHT22;14307;51.718;8.938;2024-02-26T01:00:59;4.60;99.90
26691;DHT22;14307;51.718;8.938;2024-02-26T01:03:26;4.70;99.90
26691;DHT22;14307;51.718;8.938;2024-02-26T01:05:53;4.70;99.90
26691;DHT22;14307;51.718;8.938;2024-02-26T01:08:24;4.70;99.90
26691;DHT22;14307;51.718;8.938;2024-02-26T01:10:51;4.80;99.90
26691;DHT22;14307;51.718;8.938;2024-02-26T01:13:18;4.80;99.90
26691;DHT22;14307;51.718;8.938;2024-02-26T01:15:45;4.80;99.90
26691;DHT22;14307;51.718;8.938;2024-02-26T01:18:12;4.80;99.90
26691;DHT22;14307;51.718;8.938;2024-02-26T01:20:39;4.80;99.90
26691;DHT22;14307;51.718;8.938;2024-02-26T01:23:06;4.80;99.90
26691;DHT22;14307;51.718;8.938;2024-02-26T01:25:32;4.80;99.90
26691;DHT22;14307;51.718;8.938;2024-02-26T01:27:59;4.80;99.90
26691;DHT22;14307;51.718;8.938;2024-02-26T01:30:26;4.90;99.90
26691;DHT22;14307;51.718;8.938;2024-02-26T01:32:53;4.90;99.90
26691;DHT22;14307;51.718;8.938;2024-02-26T01:35:20;4.90;99.90
26691;DHT22;14307;51.718;8.938;2024-02-26T01:37:47;4.90;99.90
26691;DHT22;14307;51.718;8.938;2024-02-26T01:40:14;5.00;99.90
26691;DHT22;14307;51.718;8.938;2024-02-26T01:42:46;5.00;99.90
26691;DHT22;14307;51.718;8.938;2024-02-26T01:45:16;5.10;99.90
26691;DHT22;14307;51.718;8.938;2024-02-26T01:47:51;5.20;99.90
26691;DHT22;14307;51.718;8.938;2024-02-26T01:50:19;5.10;99.90
26691;DHT22;14307;51.718;8.938;2024-02-26T01:52:49;5.20;99.90
26691;DHT22;14307;51.718;8.938;2024-02-26T01:55:20;5.20;99.90
26691;DHT22;14307;51.718;8.938;2024-02-26T01:57:49;5.20;99.90
26691;DHT22;14307;51.718;8.938;2024-02-26T02:00:18;5.20;99.90
26691;DHT22;14307;51.718;8.938;2024-02-26T02:02:46;5.20;99.90
26691;DHT22;14307;51.718;8.938;2024-02-26T02:05:16;5.20;99.90
26691;DHT22;14307;51.718;8.938;2024-02-26T02:07:44;5.20;99.90
26691;DHT22;14307;51.718;8.938;2024-02-26T02:10:11;5.20;99.90
26691;DHT22;14307;51.718;8.938;2024-02-26T02:12:37;5.10;99.90
26691;DHT22;14307;51.718;8.938;2024-02-26T02:15:07;5.10;99.90
26691;DHT22;14307;51.718;8.938;2024-02-26T02:17:34;5.10;99.90
26691;DHT22;14307;51.718;8.938;2024-02-26T02:20:01;5.20;99.90
26691;DHT22;14307;51.718;8.938;2024-02-26T02:22:30;5.20;99.90
26691;DHT22;14307;51.718;8.938;2024-02-26T02:24:59;5.20;99.90
26691;DHT22;14307;51.718;8.938;2024-02-26T02:27:28;5.20;99.90
26691;DHT22;14307;51.718;8.938;2024-02-26T02:29:55;5.10;99.90
26691;DHT22;14307;51.718;8.938;2024-02-26T02:32:23;5.20;99.90
26691;DHT22;14307;51.718;8.938;2024-02-26T02:34:51;5.20;99.90
26691;DHT22;14307;51.718;8.938;2024-02-26T02:37:18;5.20;99.90
26691;DHT22;14307;51.718;8.938;2024-02-26T02:39:45;5.30;99.90
26691;DHT22;14307;51.718;8.938;2024-02-26T02:42:13;5.20;99.90
26691;DHT22;14307;51.718;8.938;2024-02-26T02:44:39;5.20;99.90
26691;DHT22;14307;51.718;8.938;2024-02-26T02:47:06;5.20;99.90
26691;DHT22;14307;51.718;8.938;2024-02-26T02:49:33;5.20;99.90
26691;DHT22;14307;51.718;8.938;2024-02-26T02:52:00;5.30;99.90
26691;DHT22;14307;51.718;8.938;2024-02-26T02:54:27;5.30;99.90
26691;DHT22;14307;51.718;8.938;2024-02-26T02:56:54;5.20;99.90
26691;DHT22;14307;51.718;8.938;2024-02-26T02:59:21;5.30;99.90
26691;DHT22;14307;51.718;8.938;2024-02-26T03:01:48;5.20;99.90
26691;DHT22;14307;51.718;8.938;2024-02-26T03:04:15;5.20;99.90
26691;DHT22;14307;51.718;8.938;2024-02-26T03:06:42;5.20;99.90
26691;DHT22;14307;51.718;8.938;2024-02-26T03:09:09;5.30;99.90
26691;DHT22;14307;51.718;8.938;2024-02-26T03:11:36;5.30;99.90
26691;DHT22;14307;51.718;8.938;2024-02-26T03:14:03;5.20;99.90
26691;DHT22;14307;51.718;8.938;2024-02-26T03:16:31;5.20;99.90
26691;DHT22;14307;51.718;8.938;2024-02-26T03:18:58;5.20;99.90
26691;DHT22;14307;51.718;8.938;2024-02-26T03:21:26;5.20;99.90
26691;DHT22;14307;51.718;8.938;2024-02-26T03:23:53;5.30;99.90
26691;DHT22;14307;51.718;8.938;2024-02-26T03:26:20;5.20;99.90
26691;DHT22;14307;51.718;8.938;2024-02-26T03:28:48;5.20;99.90
26691;DHT22;14307;51.718;8.938;2024-02-26T03:31:14;5.20;99.90
26691;DHT22;14307;51.718;8.938;2024-02-26T03:33:41;5.20;99.90
26691;DHT22;14307;51.718;8.938;2024-02-26T03:36:08;5.30;99.90
26691;DHT22;14307;51.718;8.938;2024-02-26T03:38:35;5.30;99.90
26691;DHT22;14307;51.718;8.938;2024-02-26T03:41:03;5.30;99.90
26691;DHT22;14307;51.718;8.938;2024-02-26T03:43:30;5.30;99.90
26691;DHT22;14307;51.718;8.938;2024-02-26T03:45:57;5.30;99.90
26691;DHT22;14307;51.718;8.938;2024-02-26T03:48:23;5.30;99.90
26691;DHT22;14307;51.718;8.938;2024-02-26T03:50:50;5.30;99.90
26691;DHT22;14307;51.718;8.938;2024-02-26T03:53:17;5.40;99.90
26691;DHT22;14307;51.718;8.938;2024-02-26T03:55:44;5.40;99.90
26691;DHT22;14307;51.718;8.938;2024-02-26T03:58:12;5.40;99.90
26691;DHT22;14307;51.718;8.938;2024-02-26T04:00:39;5.40;99.90
26691;DHT22;14307;51.718;8.938;2024-02-26T04:03:06;5.40;99.90
26691;DHT22;14307;51.718;8.938;2024-02-26T04:05:33;5.50;99.90
26691;DHT22;14307;51.718;8.938;2024-02-26T04:07:59;5.50;99.90
26691;DHT22;14307;51.718;8.938;2024-02-26T04:10:26;5.40;99.90
26691;DHT22;14307;51.718;8.938;2024-02-26T04:12:53;5.50;99.90
26691;DHT22;14307;51.718;8.938;2024-02-26T04:15:20;5.50;99.90
26691;DHT22;14307;51.718;8.938;2024-02-26T04:17:47;5.50;99.90
26691;DHT22;14307;51.718;8.938;2024-02-26T04:20:14;5.50;99.90
26691;DHT22;14307;51.718;8.938;2024-02-26T04:22:42;5.50;99.90
26691;DHT22;14307;51.718;8.938;2024-02-26T04:25:09;5.60;99.90
26691;DHT22;14307;51.718;8.938;2024-02-26T04:27:36;5.60;99.90
26691;DHT22;14307;51.718;8.938;2024-02-26T04:30:04;5.60;99.90
26691;DHT22;14307;51.718;8.938;2024-02-26T04:32:31;5.70;99.90
26691;DHT22;14307;51.718;8.938;2024-02-26T04:34:58;5.70;99.90
26691;DHT22;14307;51.718;8.938;2024-02-26T04:37:25;5.70;99.90
26691;DHT22;14307;51.718;8.938;2024-02-26T04:40:01;5.80;99.90
26691;DHT22;14307;51.718;8.938;2024-02-26T04:42:28;5.80;99.90
26691;DHT22;14307;51.718;8.938;2024-02-26T04:44:55;5.80;99.90
26691;DHT22;14307;51.718;8.938;2024-02-26T04:47:22;5.90;99.90
26691;DHT22;14307;51.718;8.938;2024-02-26T04:49:50;5.90;99.90
26691;DHT22;14307;51.718;8.938;2024-02-26T04:52:18;6.00;99.90
26691;DHT22;14307;51.718;8.938;2024-02-26T04:54:45;6.00;99.90
26691;DHT22;14307;51.718;8.938;2024-02-26T04:57:11;6.00;99.90
26691;DHT22;14307;51.718;8.938;2024-02-26T04:59:38;6.00;99.90
26691;DHT22;14307;51.718;8.938;2024-02-26T05:02:07;6.00;99.90
26691;DHT22;14307;51.718;8.938;2024-02-26T05:04:34;6.00;99.90
26691;DHT22;14307;51.718;8.938;2024-02-26T05:07:02;6.00;99.90
26691;DHT22;14307;51.718;8.938;2024-02-26T05:09:29;6.00;99.90
26691;DHT22;14307;51.718;8.938;2024-02-26T05:11:56;6.10;99.90
26691;DHT22;14307;51.718;8.938;2024-02-26T05:14:23;6.00;99.90
26691;DHT22;14307;51.718;8.938;2024-02-26T05:16:49;6.10;99.90
26691;DHT22;14307;51.718;8.938;2024-02-26T05:19:16;6.10;99.90
26691;DHT22;14307;51.718;8.938;2024-02-26T05:21:43;6.10;99.90
26691;DHT22;14307;51.718;8.938;2024-02-26T05:24:10;6.10;99.90
26691;DHT22;14307;51.718;8.938;2024-02-26T05:26:37;6.10;99.90
26691;DHT22;14307;51.718;8.938;2024-02-26T05:29:04;6.00;99.90
26691;DHT22;14307;51.718;8.938;2024-02-26T05:31:32;6.00;99.90
26691;DHT22;14307;51.718;8.938;2024-02-26T05:33:59;6.00;99.90
26691;DHT22;14307;51.718;8.938;2024-02-26T05:36:26;6.00;99.90
26691;DHT22;14307;51.718;8.938;2024-02-26T05:38:55;5.90;99.90
26691;DHT22;14307;51.718;8.938;2024-02-26T05:41:22;5.90;99.90
26691;DHT22;14307;51.718;8.938;2024-02-26T05:43:53;5.90;99.90
26691;DHT22;14307;51.718;8.938;2024-02-26T05:46:20;5.80;99.90
26691;DHT22;14307;51.718;8.938;2024-02-26T05:48:50;5.70;99.90
26691;DHT22;14307;51.718;8.938;2024-02-26T05:51:18;5.70;99.90
26691;DHT22;14307;51.718;8.938;2024-02-26T05:53:45;5.70;99.90
26691;DHT22;14307;51.718;8.938;2024-02-26T05:56:13;5.70;99.90
26691;DHT22;14307;51.718;8.938;2024-02-26T05:58:40;5.80;99.90
26691;DHT22;14307;51.718;8.938;2024-02-26T06:01:07;5.80;99.90
26691;DHT22;14307;51.718;8.938;2024-02-26T06:03:34;5.80;99.90
26691;DHT22;14307;51.718;8.938;2024-02-26T06:06:01;5.80;99.90
26691;DHT22;14307;51.718;8.938;2024-02-26T06:08:28;5.70;99.90
26691;DHT22;14307;51.718;8.938;2024-02-26T06:10:55;5.80;99.90
26691;DHT22;14307;51.718;8.938;2024-02-26T06:13:22;5.80;99.90
26691;DHT22;14307;51.718;8.938;2024-02-26T06:15:49;5.70;99.90
26691;DHT22;14307;51.718;8.938;2024-02-26T06:18:16;5.70;99.90
26691;DHT22;14307;51.718;8.938;2024-02-26T06:20:43;5.60;99.90
26691;DHT22;14307;51.718;8.938;2024-02-26T06:23:09;5.60;99.90
26691;DHT22;14307;51.718;8.938;2024-02-26T06:25:36;5.60;99.90
26691;DHT22;14307;51.718;8.938;2024-02-26T06:28:03;5.60;99.90
26691;DHT22;14307;51.718;8.938;2024-02-26T06:30:31;5.50;99.90
26691;DHT22;14307;51.718;8.938;2024-02-26T06:32:58;5.40;99.90
26691;DHT22;14307;51.718;8.938;2024-02-26T06:35:25;5.40;99.90
26691;DHT22;14307;51.718;8.938;2024-02-26T06:37:51;5.50;99.90
26691;DHT22;14307;51.718;8.938;2024-02-26T06:40:19;5.40;99.90
26691;DHT22;14307;51.718;8.938;2024-02-26T06:42:46;5.40;99.90
26691;DHT22;14307;51.718;8.938;2024-02-26T06:45:15;5.40;99.90
26691;DHT22;14307;51.718;8.938;2024-02-26T06:47:42;5.40;99.90
26691;DHT22;14307;51.718;8.938;2024-02-26T06:50:11;5.30;99.90
26691;DHT22;14307;51.718;8.938;2024-02-26T06:52:38;5.30;99.90
26691;DHT22;14307;51.718;8.938;2024-02-26T06:55:05;5.20;99.90
26691;DHT22;14307;51.718;8.938;2024-02-26T06:57:34;5.20;99.90
26691;DHT22;14307;51.718;8.938;2024-02-26T07:00:03;5.30;99.90
26691;DHT22;14307;51.718;8.938;2024-02-26T07:02:31;5.30;99.90
26691;DHT22;14307;51.718;8.938;2024-02-26T07:04:58;5.30;99.90
26691;DHT22;14307;51.718;8.938;2024-02-26T07:07:25;5.30;99.90
26691;DHT22;14307;51.718;8.938;2024-02-26T07:09:52;5.30;99.90
26691;DHT22;14307;51.718;8.938;2024-02-26T07:12:19;5.40;99.90
26691;DHT22;14307;51.718;8.938;2024-02-26T07:14:48;5.40;99.90
26691;DHT22;14307;51.718;8.938;2024-02-26T07:17:16;5.50;99.90
26691;DHT22;14307;51.718;8.938;2024-02-26T07:19:42;5.30;99.90
26691;DHT22;14307;51.718;8.938;2024-02-26T07:22:09;5.40;99.90
26691;DHT22;14307;51.718;8.938;2024-02-26T07:24:36;5.40;99.90
26691;DHT22;14307;51.718;8.938;2024-02-26T07:27:03;5.30;99.90
26691;DHT22;14307;51.718;8.938;2024-02-26T07:29:30;5.40;99.90
26691;DHT22;14307;51.718;8.938;2024-02-26T07:31:58;5.40;99.90
26691;DHT22;14307;51.718;8.938;2024-02-26T07:34:25;5.40;99.90
26691;DHT22;14307;51.718;8.938;2024-02-26T07:36:56;5.40;99.90
26691;DHT22;14307;51.718;8.938;2024-02-26T07:39:23;5.40;99.90
26691;DHT22;14307;51.718;8.938;2024-02-26T07:41:50;5.40;99.90
26691;DHT22;14307;51.718;8.938;2024-02-26T07:44:20;5.40;99.90
26691;DHT22;14307;51.718;8.938;2024-02-26T07:46:47;5.50;99.90
26691;DHT22;14307;51.718;8.938;2024-02-26T07:49:14;5.70;99.90
26691;DHT22;14307;51.718;8.938;2024-02-26T07:51:41;5.70;99.90
26691;DHT22;14307;51.718;8.938;2024-02-26T07:54:08;5.80;99.90
26691;DHT22;14307;51.718;8.938;2024-02-26T07:56:35;5.90;99.90
26691;DHT22;14307;51.718;8.938;2024-02-26T07:59:02;6.00;99.90
26691;DHT22;14307;51.718;8.938;2024-02-26T08:01:29;6.00;99.90
26691;DHT22;14307;51.718;8.938;2024-02-26T08:03:56;5.90;99.90
26691;DHT22;14307;51.718;8.938;2024-02-26T08:06:23;6.10;99.90
26691;DHT22;14307;51.718;8.938;2024-02-26T08:08:51;6.10;99.90
26691;DHT22;14307;51.718;8.938;2024-02-26T08:11:18;6.10;99.90
26691;DHT22;14307;51.718;8.938;2024-02-26T08:13:45;6.20;99.90
26691;DHT22;14307;51.718;8.938;2024-02-26T08:16:12;6.30;99.90
26691;DHT22;14307;51.718;8.938;2024-02-26T08:18:39;6.30;99.90
26691;DHT22;14307;51.718;8.938;2024-02-26T08:21:06;6.30;99.90
26691;DHT22;14307;51.718;8.938;2024-02-26T08:23:35;6.30;99.90
26691;DHT22;14307;51.718;8.938;2024-02-26T08:26:02;6.30;99.90
26691;DHT22;14307;51.718;8.938;2024-02-26T08:28:30;6.40;99.90
26691;DHT22;14307;51.718;8.938;2024-02-26T08:30:57;6.30;99.90
26691;DHT22;14307;51.718;8.938;2024-02-26T08:33:25;6.30;99.90
26691;DHT22;14307;51.718;8.938;2024-02-26T08:35:52;6.40;99.90
26691;DHT22;14307;51.718;8.938;2024-02-26T08:38:19;6.40;99.90
26691;DHT22;14307;51.718;8.938;2024-02-26T08:40:46;6.60;99.90
26691;DHT22;14307;51.718;8.938;2024-02-26T08:43:12;6.80;99.90
26691;DHT22;14307;51.718;8.938;2024-02-26T08:45:39;6.80;99.90
26691;DHT22;14307;51.718;8.938;2024-02-26T08:48:07;6.80;99.90
26691;DHT22;14307;51.718;8.938;2024-02-26T08:50:34;6.80;99.90
26691;DHT22;14307;51.718;8.938;2024-02-26T08:53:01;6.80;99.90
26691;DHT22;14307;51.718;8.938;2024-02-26T08:55:33;6.80;99.90
26691;DHT22;14307;51.718;8.938;2024-02-26T08:58:00;6.90;99.90
26691;DHT22;14307;51.718;8.938;2024-02-26T09:00:28;7.00;99.90
26691;DHT22;14307;51.718;8.938;2024-02-26T09:02:55;7.20;99.90
26691;DHT22;14307;51.718;8.938;2024-02-26T09:05:22;7.20;99.90
26691;DHT22;14307;51.718;8.938;2024-02-26T09:07:49;7.30;99.90
26691;DHT22;14307;51.718;8.938;2024-02-26T09:10:18;7.40;99.90
26691;DHT22;14307;51.718;8.938;2024-02-26T09:12:45;7.60;99.90
26691;DHT22;14307;51.718;8.938;2024-02-26T09:15:12;7.90;99.90
26691;DHT22;14307;51.718;8.938;2024-02-26T09:17:39;8.10;99.90
26691;DHT22;14307;51.718;8.938;2024-02-26T09:20:06;8.00;99.90
26691;DHT22;14307;51.718;8.938;2024-02-26T09:22:35;8.10;99.90
26691;DHT22;14307;51.718;8.938;2024-02-26T09:25:05;8.20;99.90
26691;DHT22;14307;51.718;8.938;2024-02-26T09:27:33;8.00;99.90
26691;DHT22;14307;51.718;8.938;2024-02-26T09:29:59;8.00;99.90
26691;DHT22;14307;51.718;8.938;2024-02-26T09:32:27;8.20;99.90
26691;DHT22;14307;51.718;8.938;2024-02-26T09:34:53;8.30;99.90
26691;DHT22;14307;51.718;8.938;2024-02-26T09:37:20;8.40;99.90
26691;DHT22;14307;51.718;8.938;2024-02-26T09:39:48;8.30;99.90
26691;DHT22;14307;51.718;8.938;2024-02-26T09:42:18;8.20;99.90
26691;DHT22;14307;51.718;8.938;2024-02-26T09:44:48;8.30;99.90
26691;DHT22;14307;51.718;8.938;2024-02-26T09:47:17;8.50;99.90
26691;DHT22;14307;51.718;8.938;2024-02-26T09:49:47;8.60;99.90
26691;DHT22;14307;51.718;8.938;2024-02-26T09:52:15;8.60;99.90
26691;DHT22;14307;51.718;8.938;2024-02-26T09:54:47;8.60;99.90
26691;DHT22;14307;51.718;8.938;2024-02-26T09:57:15;8.50;99.90
26691;DHT22;14307;51.718;8.938;2024-02-26T09:59:44;8.50;99.90
26691;DHT22;14307;51.718;8.938;2024-02-26T10:02:14;8.60;99.90
26691;DHT22;14307;51.718;8.938;2024-02-26T10:04:41;8.70;99.90
26691;DHT22;14307;51.718;8.938;2024-02-26T10:07:15;8.80;99.90
26691;DHT22;14307;51.718;8.938;2024-02-26T10:09:42;8.60;99.90
26691;DHT22;14307;51.718;8.938;2024-02-26T10:12:10;8.70;99.90
26691;DHT22;14307;51.718;8.938;2024-02-26T10:14:38;8.90;99.90
26691;DHT22;14307;51.718;8.938;2024-02-26T10:17:07;8.80;99.90
26691;DHT22;14307;51.718;8.938;2024-02-26T10:19:37;8.90;99.90
26691;DHT22;14307;51.718;8.938;2024-02-26T10:22:05;9.00;99.90
26691;DHT22;14307;51.718;8.938;2024-02-26T10:24:32;9.10;99.90
26691;DHT22;14307;51.718;8.938;2024-02-26T10:27:02;9.20;99.90
26691;DHT22;14307;51.718;8.938;2024-02-26T10:29:29;9.10;99.90
26691;DHT22;14307;51.718;8.938;2024-02-26T10:31:56;9.00;99.90
26691;DHT22;14307;51.718;8.938;2024-02-26T10:34:23;9.00;99.90
26691;DHT22;14307;51.718;8.938;2024-02-26T10:36:50;9.00;99.90
26691;DHT22;14307;51.718;8.938;2024-02-26T10:39:20;9.00;99.90
26691;DHT22;14307;51.718;8.938;2024-02-26T10:41:48;8.90;99.90
26691;DHT22;14307;51.718;8.938;2024-02-26T10:44:16;8.80;99.90
26691;DHT22;14307;51.718;8.938;2024-02-26T10:46:47;8.90;99.90
26691;DHT22;14307;51.718;8.938;2024-02-26T10:49:16;9.00;99.90
26691;DHT22;14307;51.718;8.938;2024-02-26T10:51:55;9.10;99.90
26691;DHT22;14307;51.718;8.938;2024-02-26T10:54:29;9.10;99.90
26691;DHT22;14307;51.718;8.938;2024-02-26T10:56:59;9.20;99.90
26691;DHT22;14307;51.718;8.938;2024-02-26T10:59:26;9.10;99.90
26691;DHT22;14307;51.718;8.938;2024-02-26T11:01:54;9.30;99.90
26691;DHT22;14307;51.718;8.938;2024-02-26T11:04:22;9.30;99.90
26691;DHT22;14307;51.718;8.938;2024-02-26T11:06:49;9.20;99.90
26691;DHT22;14307;51.718;8.938;2024-02-26T11:09:17;9.10;99.90
26691;DHT22;14307;51.718;8.938;2024-02-26T11:11:47;9.20;99.90
26691;DHT22;14307;51.718;8.938;2024-02-26T11:14:15;9.40;99.90
26691;DHT22;14307;51.718;8.938;2024-02-26T11:16:43;9.50;99.90
26691;DHT22;14307;51.718;8.938;2024-02-26T11:19:11;9.30;99.90
26691;DHT22;14307;51.718;8.938;2024-02-26T11:21:40;9.30;99.90
26691;DHT22;14307;51.718;8.938;2024-02-26T11:24:14;9.50;99.90
26691;DHT22;14307;51.718;8.938;2024-02-26T11:27:17;9.60;99.90
26691;DHT22;14307;51.718;8.938;2024-02-26T11:29:51;9.50;99.90
26691;DHT22;14307;51.718;8.938;2024-02-26T11:32:18;9.40;99.90
26691;DHT22;14307;51.718;8.938;2024-02-26T11:34:46;9.40;99.90
26691;DHT22;14307;51.718;8.938;2024-02-26T11:37:17;9.50;99.90
26691;DHT22;14307;51.718;8.938;2024-02-26T11:39:45;9.60;99.90
26691;DHT22;14307;51.718;8.938;2024-02-26T11:42:16;9.40;99.90
26691;DHT22;14307;51.718;8.938;2024-02-26T11:44:43;9.30;99.90
26691;DHT22;14307;51.718;8.938;2024-02-26T11:47:14;9.30;99.90
26691;DHT22;14307;51.718;8.938;2024-02-26T11:49:44;9.50;99.90
26691;DHT22;14307;51.718;8.938;2024-02-26T11:52:12;9.50;99.90
26691;DHT22;14307;51.718;8.938;2024-02-26T11:57:29;9.30;99.90
26691;DHT22;14307;51.718;8.938;2024-02-26T12:00:11;9.10;99.90
26691;DHT22;14307;51.718;8.938;2024-02-26T12:02:47;9.10;99.90
26691;DHT22;14307;51.718;8.938;2024-02-26T12:07:49;9.30;99.90
26691;DHT22;14307;51.718;8.938;2024-02-26T12:10:25;9.10;99.90
26691;DHT22;14307;51.718;8.938;2024-02-26T12:13:00;9.00;99.90
26691;DHT22;14307;51.718;8.938;2024-02-26T12:15:32;9.20;99.90
26691;DHT22;14307;51.718;8.938;2024-02-26T12:18:01;9.10;99.90
26691;DHT22;14307;51.718;8.938;2024-02-26T12:20:29;9.10;99.90
26691;DHT22;14307;51.718;8.938;2024-02-26T12:22:56;9.10;99.90
26691;DHT22;14307;51.718;8.938;2024-02-26T12:25:25;9.10;99.90
26691;DHT22;14307;51.718;8.938;2024-02-26T12:27:53;9.00;99.90
26691;DHT22;14307;51.718;8.938;2024-02-26T12:30:21;8.90;99.90
26691;DHT22;14307;51.718;8.938;2024-02-26T12:32:50;9.00;99.90
26691;DHT22;14307;51.718;8.938;2024-02-26T12:35:17;8.90;99.90
26691;DHT22;14307;51.718;8.938;2024-02-26T12:37:45;8.80;99.90
26691;DHT22;14307;51.718;8.938;2024-02-26T12:40:12;8.80;99.90
26691;DHT22;14307;51.718;8.938;2024-02-26T12:42:40;8.90;99.90
26691;DHT22;14307;51.718;8.938;2024-02-26T12:45:12;9.00;99.90
26691;DHT22;14307;51.718;8.938;2024-02-26T12:47:40;9.10;99.90
26691;DHT22;14307;51.718;8.938;2024-02-26T12:50:08;9.20;99.90
26691;DHT22;14307;51.718;8.938;2024-02-26T12:52:44;8.90;99.90
26691;DHT22;14307;51.718;8.938;2024-02-26T12:55:15;8.90;99.90
26691;DHT22;14307;51.718;8.938;2024-02-26T12:57:44;8.90;99.90
26691;DHT22;14307;51.718;8.938;2024-02-26T13:00:25;8.80;99.90
26691;DHT22;14307;51.718;8.938;2024-02-26T13:02:54;8.80;99.90
26691;DHT22;14307;51.718;8.938;2024-02-26T13:05:22;8.70;99.90
26691;DHT22;14307;51.718;8.938;2024-02-26T13:07:49;8.70;99.90
26691;DHT22;14307;51.718;8.938;2024-02-26T13:10:18;8.80;99.90
26691;DHT22;14307;51.718;8.938;2024-02-26T13:12:47;8.70;99.90
26691;DHT22;14307;51.718;8.938;2024-02-26T13:15:18;8.70;99.90
26691;DHT22;14307;51.718;8.938;2024-02-26T13:17:47;8.60;99.90
26691;DHT22;14307;51.718;8.938;2024-02-26T13:20:26;8.60;99.90
26691;DHT22;14307;51.718;8.938;2024-02-26T13:23:03;8.50;99.90
26691;DHT22;14307;51.718;8.938;2024-02-26T13:25:32;8.60;99.90
26691;DHT22;14307;51.718;8.938;2024-02-26T13:28:24;8.50;99.90
26691;DHT22;14307;51.718;8.938;2024-02-26T13:30:57;8.50;99.90
26691;DHT22;14307;51.718;8.938;2024-02-26T13:33:28;8.50;99.90
26691;DHT22;14307;51.718;8.938;2024-02-26T13:35:56;8.60;99.90
26691;DHT22;14307;51.718;8.938;2024-02-26T13:38:24;8.50;99.90
26691;DHT22;14307;51.718;8.938;2024-02-26T13:40:52;8.50;99.90
26691;DHT22;14307;51.718;8.938;2024-02-26T13:43:19;8.60;99.90
26691;DHT22;14307;51.718;8.938;2024-02-26T13:45:46;8.60;99.90
26691;DHT22;14307;51.718;8.938;2024-02-26T13:48:14;8.50;99.90
26691;DHT22;14307;51.718;8.938;2024-02-26T13:50:42;8.50;99.90
26691;DHT22;14307;51.718;8.938;2024-02-26T13:53:09;8.40;99.90
26691;DHT22;14307;51.718;8.938;2024-02-26T13:55:37;8.30;99.90
26691;DHT22;14307;51.718;8.938;2024-02-26T13:58:04;8.30;99.90
26691;DHT22;14307;51.718;8.938;2024-02-26T14:00:31;8.30;99.90
26691;DHT22;14307;51.718;8.938;2024-02-26T14:03:02;8.30;99.90
26691;DHT22;14307;51.718;8.938;2024-02-26T14:05:30;8.20;99.90
26691;DHT22;14307;51.718;8.938;2024-02-26T14:07:57;8.30;99.90
26691;DHT22;14307;51.718;8.938;2024-02-26T14:10:24;8.30;99.90
26691;DHT22;14307;51.718;8.938;2024-02-26T14:12:52;8.30;99.90
26691;DHT22;14307;51.718;8.938;2024-02-26T14:15:19;8.40;99.90
26691;DHT22;14307;51.718;8.938;2024-02-26T14:17:46;8.30;99.90
26691;DHT22;14307;51.718;8.938;2024-02-26T14:20:20;8.30;99.90
26691;DHT22;14307;51.718;8.938;2024-02-26T14:22:48;8.30;99.90
26691;DHT22;14307;51.718;8.938;2024-02-26T14:25:15;8.30;99.90
26691;DHT22;14307;51.718;8.938;2024-02-26T14:27:42;8.20;99.90
26691;DHT22;14307;51.718;8.938;2024-02-26T14:30:28;8.30;99.90
26691;DHT22;14307;51.718;8.938;2024-02-26T14:32:55;8.40;99.90
26691;DHT22;14307;51.718;8.938;2024-02-26T14:35:23;8.40;99.90
26691;DHT22;14307;51.718;8.938;2024-02-26T14:37:52;8.30;99.90
26691;DHT22;14307;51.718;8.938;2024-02-26T14:40:19;8.40;99.90
26691;DHT22;14307;51.718;8.938;2024-02-26T14:42:46;8.40;99.90
26691;DHT22;14307;51.718;8.938;2024-02-26T14:45:13;8.40;99.90
26691;DHT22;14307;51.718;8.938;2024-02-26T14:47:40;8.40;99.90
26691;DHT22;14307;51.718;8.938;2024-02-26T14:50:08;8.40;99.90
26691;DHT22;14307;51.718;8.938;2024-02-26T14:52:35;8.40;99.90
26691;DHT22;14307;51.718;8.938;2024-02-26T14:55:02;8.40;99.90
26691;DHT22;14307;51.718;8.938;2024-02-26T14:57:29;8.50;99.90
26691;DHT22;14307;51.718;8.938;2024-02-26T14:59:56;8.50;99.90
26691;DHT22;14307;51.718;8.938;2024-02-26T15:02:23;8.60;99.90
26691;DHT22;14307;51.718;8.938;2024-02-26T15:04:49;8.50;99.90
26691;DHT22;14307;51.718;8.938;2024-02-26T15:07:17;8.50;99.90
26691;DHT22;14307;51.718;8.938;2024-02-26T15:09:46;8.60;99.90
26691;DHT22;14307;51.718;8.938;2024-02-26T15:12:13;8.40;99.90
26691;DHT22;14307;51.718;8.938;2024-02-26T15:14:42;8.40;99.90
26691;DHT22;14307;51.718;8.938;2024-02-26T15:17:08;8.40;99.90
26691;DHT22;14307;51.718;8.938;2024-02-26T15:19:37;8.40;99.90
26691;DHT22;14307;51.718;8.938;2024-02-26T15:22:05;8.30;99.90
26691;DHT22;14307;51.718;8.938;2024-02-26T15:24:32;8.20;99.90
26691;DHT22;14307;51.718;8.938;2024-02-26T15:26:58;8.30;99.90
26691;DHT22;14307;51.718;8.938;2024-02-26T15:29:27;8.30;99.90
26691;DHT22;14307;51.718;8.938;2024-02-26T15:31:54;8.30;99.90
26691;DHT22;14307;51.718;8.938;2024-02-26T15:34:21;8.30;99.90
26691;DHT22;14307;51.718;8.938;2024-02-26T15:36:48;8.30;99.90
26691;DHT22;14307;51.718;8.938;2024-02-26T15:39:15;8.30;99.90
26691;DHT22;14307;51.718;8.938;2024-02-26T15:41:42;8.30;99.90
26691;DHT22;14307;51.718;8.938;2024-02-26T15:44:09;8.30;99.90
26691;DHT22;14307;51.718;8.938;2024-02-26T15:46:40;8.30;99.90
26691;DHT22;14307;51.718;8.938;2024-02-26T15:49:07;8.30;99.90
26691;DHT22;14307;51.718;8.938;2024-02-26T15:51:38;8.40;99.90
26691;DHT22;14307;51.718;8.938;2024-02-26T15:54:05;8.30;99.90
26691;DHT22;14307;51.718;8.938;2024-02-26T15:56:32;8.20;99.90